sensor_id;sensor_type;location;lat;lon;timestamp;pressure;altitude;pressure_sealevel;temperature;humidity
23166;BME280;11751;42.700;24.170;2023-12-20T00:02:13;94288.97;;;-0.12;100.00
23166;BME280;11751;42.700;24.170;2023-12-20T00:04:39;94295.22;;;-0.11;100.00
23166;BME280;11751;42.700;24.170;2023-12-20T00:07:04;94299.41;;;-0.16;100.00
23166;BME280;11751;42.700;24.170;2023-12-20T00:09:30;94295.44;;;-0.15;100.00
23166;BME280;11751;42.700;24.170;2023-12-20T00:11:55;94299.75;;;-0.08;100.00
23166;BME280;11751;42.700;24.170;2023-12-20T00:14:20;94291.78;;;-0.06;100.00
23166;BME280;11751;42.700;24.170;2023-12-20T00:16:46;94299.47;;;-0.10;100.00
23166;BME280;11751;42.700;24.170;2023-12-20T00:19:12;94297.16;;;-0.17;100.00
23166;BME280;11751;42.700;24.170;2023-12-20T00:21:37;94299.63;;;-0.19;100.00
23166;BME280;11751;42.700;24.170;2023-12-20T00:24:03;94297.91;;;-0.17;100.00
23166;BME280;11751;42.700;24.170;2023-12-20T00:26:28;94293.84;;;-0.21;100.00
23166;BME280;11751;42.700;24.170;2023-12-20T00:28:54;94291.81;;;-0.26;100.00
23166;BME280;11751;42.700;24.170;2023-12-20T00:31:19;94293.56;;;-0.23;100.00
23166;BME280;11751;42.700;24.170;2023-12-20T00:33:45;94279.56;;;-0.25;100.00
23166;BME280;11751;42.700;24.170;2023-12-20T00:36:12;94279.34;;;-0.22;100.00
23166;BME280;11751;42.700;24.170;2023-12-20T00:38:37;94278.03;;;-0.26;100.00
23166;BME280;11751;42.700;24.170;2023-12-20T00:41:03;94278.56;;;-0.22;100.00
23166;BME280;11751;42.700;24.170;2023-12-20T00:43:28;94266.75;;;-0.28;100.00
23166;BME280;11751;42.700;24.170;2023-12-20T00:45:53;94269.50;;;-0.28;100.00
23166;BME280;11751;42.700;24.170;2023-12-20T00:48:20;94252.44;;;-0.32;100.00
23166;BME280;11751;42.700;24.170;2023-12-20T00:50:46;94261.53;;;-0.26;100.00
23166;BME280;11751;42.700;24.170;2023-12-20T00:53:11;94267.03;;;-0.26;100.00
23166;BME280;11751;42.700;24.170;2023-12-20T00:55:36;94260.97;;;-0.30;100.00
23166;BME280;11751;42.700;24.170;2023-12-20T00:58:02;94260.69;;;-0.32;100.00
23166;BME280;11751;42.700;24.170;2023-12-20T01:00:27;94257.22;;;-0.33;100.00
23166;BME280;11751;42.700;24.170;2023-12-20T01:02:53;94258.22;;;-0.30;100.00
23166;BME280;11751;42.700;24.170;2023-12-20T01:05:18;94245.44;;;-0.33;100.00
23166;BME280;11751;42.700;24.170;2023-12-20T01:07:44;94244.19;;;-0.32;100.00
23166;BME280;11751;42.700;24.170;2023-12-20T01:10:10;94236.53;;;-0.48;100.00
23166;BME280;11751;42.700;24.170;2023-12-20T01:12:36;94233.22;;;-0.52;100.00
23166;BME280;11751;42.700;24.170;2023-12-20T01:15:01;94227.19;;;-0.56;100.00
23166;BME280;11751;42.700;24.170;2023-12-20T01:17:27;94220.97;;;-0.51;100.00
23166;BME280;11751;42.700;24.170;2023-12-20T01:19:52;94227.50;;;-0.49;100.00
23166;BME280;11751;42.700;24.170;2023-12-20T01:22:18;94224.50;;;-0.51;100.00
23166;BME280;11751;42.700;24.170;2023-12-20T01:24:44;94212.00;;;-0.52;100.00
23166;BME280;11751;42.700;24.170;2023-12-20T01:27:09;94208.22;;;-0.54;100.00
23166;BME280;11751;42.700;24.170;2023-12-20T01:29:35;94206.97;;;-0.53;100.00
23166;BME280;11751;42.700;24.170;2023-12-20T01:32:00;94199.25;;;-0.49;100.00
23166;BME280;11751;42.700;24.170;2023-12-20T01:34:26;94195.28;;;-0.48;100.00
23166;BME280;11751;42.700;24.170;2023-12-20T01:36:51;94193.97;;;-0.53;100.00
23166;BME280;11751;42.700;24.170;2023-12-20T01:39:17;94188.91;;;-0.60;100.00
23166;BME280;11751;42.700;24.170;2023-12-20T01:41:42;94180.31;;;-0.67;100.00
23166;BME280;11751;42.700;24.170;2023-12-20T01:44:08;94186.09;;;-0.65;100.00
23166;BME280;11751;42.700;24.170;2023-12-20T01:46:33;94181.56;;;-0.68;100.00
23166;BME280;11751;42.700;24.170;2023-12-20T01:48:59;94175.78;;;-0.70;100.00
23166;BME280;11751;42.700;24.170;2023-12-20T01:51:25;94171.13;;;-0.64;100.00
23166;BME280;11751;42.700;24.170;2023-12-20T01:53:52;94164.31;;;-0.69;100.00
23166;BME280;11751;42.700;24.170;2023-12-20T01:56:19;94155.78;;;-0.71;100.00
23166;BME280;11751;42.700;24.170;2023-12-20T01:58:46;94152.13;;;-0.62;100.00
23166;BME280;11751;42.700;24.170;2023-12-20T02:01:12;94146.38;;;-0.64;100.00
23166;BME280;11751;42.700;24.170;2023-12-20T02:03:41;94142.91;;;-0.59;100.00
23166;BME280;11751;42.700;24.170;2023-12-20T02:06:07;94131.91;;;-0.59;100.00
23166;BME280;11751;42.700;24.170;2023-12-20T02:08:34;94139.19;;;-0.56;100.00
23166;BME280;11751;42.700;24.170;2023-12-20T02:11:00;94135.22;;;-0.55;100.00
23166;BME280;11751;42.700;24.170;2023-12-20T02:13:25;94132.19;;;-0.57;100.00
23166;BME280;11751;42.700;24.170;2023-12-20T02:15:52;94117.19;;;-0.56;100.00
23166;BME280;11751;42.700;24.170;2023-12-20T02:18:17;94113.00;;;-0.52;100.00
23166;BME280;11751;42.700;24.170;2023-12-20T02:20:42;94115.13;;;-0.61;100.00
23166;BME280;11751;42.700;24.170;2023-12-20T02:23:08;94110.63;;;-0.64;100.00
23166;BME280;11751;42.700;24.170;2023-12-20T02:25:33;94097.34;;;-0.66;100.00
23166;BME280;11751;42.700;24.170;2023-12-20T02:27:59;94096.81;;;-0.70;100.00
23166;BME280;11751;42.700;24.170;2023-12-20T02:30:24;94098.34;;;-0.69;100.00
23166;BME280;11751;42.700;24.170;2023-12-20T02:32:50;94092.22;;;-0.78;100.00
23166;BME280;11751;42.700;24.170;2023-12-20T02:35:16;94091.50;;;-0.73;100.00
23166;BME280;11751;42.700;24.170;2023-12-20T02:37:41;94086.28;;;-0.71;100.00
23166;BME280;11751;42.700;24.170;2023-12-20T02:40:07;94098.53;;;-0.72;100.00
23166;BME280;11751;42.700;24.170;2023-12-20T02:42:33;94090.28;;;-0.72;100.00
23166;BME280;11751;42.700;24.170;2023-12-20T02:44:58;94084.09;;;-0.92;100.00
23166;BME280;11751;42.700;24.170;2023-12-20T02:47:24;94086.06;;;-0.93;100.00
23166;BME280;11751;42.700;24.170;2023-12-20T02:49:49;94079.97;;;-1.02;100.00
23166;BME280;11751;42.700;24.170;2023-12-20T02:52:15;94085.13;;;-1.10;100.00
23166;BME280;11751;42.700;24.170;2023-12-20T02:54:40;94080.72;;;-1.02;100.00
23166;BME280;11751;42.700;24.170;2023-12-20T02:57:06;94083.59;;;-0.91;100.00
23166;BME280;11751;42.700;24.170;2023-12-20T02:59:31;94081.81;;;-0.94;100.00
23166;BME280;11751;42.700;24.170;2023-12-20T03:01:57;94077.56;;;-0.95;100.00
23166;BME280;11751;42.700;24.170;2023-12-20T03:04:22;94072.00;;;-1.00;100.00
23166;BME280;11751;42.700;24.170;2023-12-20T03:06:47;94073.31;;;-0.96;100.00
23166;BME280;11751;42.700;24.170;2023-12-20T03:09:13;94071.25;;;-1.01;100.00
23166;BME280;11751;42.700;24.170;2023-12-20T03:11:38;94070.28;;;-0.98;100.00
23166;BME280;11751;42.700;24.170;2023-12-20T03:14:04;94081.38;;;-1.12;100.00
23166;BME280;11751;42.700;24.170;2023-12-20T03:16:29;94079.91;;;-1.08;100.00
23166;BME280;11751;42.700;24.170;2023-12-20T03:18:56;94071.00;;;-1.03;100.00
23166;BME280;11751;42.700;24.170;2023-12-20T03:21:21;94082.00;;;-0.97;100.00
23166;BME280;11751;42.700;24.170;2023-12-20T03:23:47;94067.09;;;-0.91;100.00
23166;BME280;11751;42.700;24.170;2023-12-20T03:26:12;94069.56;;;-0.93;100.00
23166;BME280;11751;42.700;24.170;2023-12-20T03:28:38;94067.38;;;-0.89;100.00
23166;BME280;11751;42.700;24.170;2023-12-20T03:31:04;94071.25;;;-1.01;100.00
23166;BME280;11751;42.700;24.170;2023-12-20T03:33:29;94079.06;;;-0.94;100.00
23166;BME280;11751;42.700;24.170;2023-12-20T03:35:55;94075.22;;;-1.02;100.00
23166;BME280;11751;42.700;24.170;2023-12-20T03:38:21;94067.25;;;-1.00;100.00
23166;BME280;11751;42.700;24.170;2023-12-20T03:40:47;94073.88;;;-1.12;100.00
23166;BME280;11751;42.700;24.170;2023-12-20T03:43:12;94076.44;;;-1.08;100.00
23166;BME280;11751;42.700;24.170;2023-12-20T03:45:37;94078.13;;;-1.11;100.00
23166;BME280;11751;42.700;24.170;2023-12-20T03:48:03;94073.63;;;-1.14;100.00
23166;BME280;11751;42.700;24.170;2023-12-20T03:50:29;94080.34;;;-1.15;100.00
23166;BME280;11751;42.700;24.170;2023-12-20T03:52:54;94063.31;;;-1.19;100.00
23166;BME280;11751;42.700;24.170;2023-12-20T03:55:20;94058.38;;;-1.15;100.00
23166;BME280;11751;42.700;24.170;2023-12-20T03:57:45;94069.34;;;-1.15;100.00
23166;BME280;11751;42.700;24.170;2023-12-20T04:00:11;94054.09;;;-1.16;100.00
23166;BME280;11751;42.700;24.170;2023-12-20T04:02:40;94057.75;;;-1.24;100.00
23166;BME280;11751;42.700;24.170;2023-12-20T04:05:06;94061.31;;;-1.18;100.00
23166;BME280;11751;42.700;24.170;2023-12-20T04:07:32;94063.44;;;-1.28;100.00
23166;BME280;11751;42.700;24.170;2023-12-20T04:09:57;94061.50;;;-1.22;100.00
23166;BME280;11751;42.700;24.170;2023-12-20T04:12:23;94071.00;;;-1.23;100.00
23166;BME280;11751;42.700;24.170;2023-12-20T04:14:48;94088.59;;;-1.15;100.00
23166;BME280;11751;42.700;24.170;2023-12-20T04:17:15;94068.94;;;-1.28;100.00
23166;BME280;11751;42.700;24.170;2023-12-20T04:19:41;94079.72;;;-1.24;100.00
23166;BME280;11751;42.700;24.170;2023-12-20T04:22:06;94060.22;;;-1.26;100.00
23166;BME280;11751;42.700;24.170;2023-12-20T04:24:32;94058.78;;;-1.22;100.00
23166;BME280;11751;42.700;24.170;2023-12-20T04:26:57;94058.78;;;-1.22;100.00
23166;BME280;11751;42.700;24.170;2023-12-20T04:29:22;94056.88;;;-1.36;100.00
23166;BME280;11751;42.700;24.170;2023-12-20T04:31:48;94052.91;;;-1.35;100.00
23166;BME280;11751;42.700;24.170;2023-12-20T04:34:16;94046.31;;;-1.43;100.00
23166;BME280;11751;42.700;24.170;2023-12-20T04:36:42;94037.22;;;-1.29;100.00
23166;BME280;11751;42.700;24.170;2023-12-20T04:39:07;94038.59;;;-1.39;100.00
23166;BME280;11751;42.700;24.170;2023-12-20T04:41:33;94029.84;;;-1.43;100.00
23166;BME280;11751;42.700;24.170;2023-12-20T04:43:58;94037.38;;;-1.38;100.00
23166;BME280;11751;42.700;24.170;2023-12-20T04:46:24;94033.94;;;-1.33;100.00
23166;BME280;11751;42.700;24.170;2023-12-20T04:48:49;94029.94;;;-1.32;100.00
23166;BME280;11751;42.700;24.170;2023-12-20T04:51:15;94037.09;;;-1.40;100.00
23166;BME280;11751;42.700;24.170;2023-12-20T04:53:40;94025.31;;;-1.46;100.00
23166;BME280;11751;42.700;24.170;2023-12-20T04:56:06;94033.06;;;-1.44;100.00
23166;BME280;11751;42.700;24.170;2023-12-20T04:58:31;94021.44;;;-1.34;100.00
23166;BME280;11751;42.700;24.170;2023-12-20T05:00:57;94014.44;;;-1.35;100.00
23166;BME280;11751;42.700;24.170;2023-12-20T05:03:22;94011.56;;;-1.26;100.00
23166;BME280;11751;42.700;24.170;2023-12-20T05:05:47;94007.00;;;-1.29;100.00
23166;BME280;11751;42.700;24.170;2023-12-20T05:08:13;94008.53;;;-1.28;100.00
23166;BME280;11751;42.700;24.170;2023-12-20T05:10:38;94004.09;;;-1.20;100.00
23166;BME280;11751;42.700;24.170;2023-12-20T05:13:05;93998.84;;;-1.23;100.00
23166;BME280;11751;42.700;24.170;2023-12-20T05:15:31;93996.03;;;-1.29;100.00
23166;BME280;11751;42.700;24.170;2023-12-20T05:17:56;94006.06;;;-1.26;100.00
23166;BME280;11751;42.700;24.170;2023-12-20T05:20:21;94005.94;;;-1.37;100.00
23166;BME280;11751;42.700;24.170;2023-12-20T05:22:48;94003.94;;;-1.56;100.00
23166;BME280;11751;42.700;24.170;2023-12-20T05:25:13;94008.91;;;-1.60;100.00
23166;BME280;11751;42.700;24.170;2023-12-20T05:27:38;93994.28;;;-1.52;100.00
23166;BME280;11751;42.700;24.170;2023-12-20T05:30:05;93997.41;;;-1.39;100.00
23166;BME280;11751;42.700;24.170;2023-12-20T05:32:31;93986.94;;;-1.40;100.00
23166;BME280;11751;42.700;24.170;2023-12-20T05:34:56;93992.88;;;-1.42;100.00
23166;BME280;11751;42.700;24.170;2023-12-20T05:37:22;93995.59;;;-1.47;100.00
23166;BME280;11751;42.700;24.170;2023-12-20T05:39:47;93989.06;;;-1.50;100.00
23166;BME280;11751;42.700;24.170;2023-12-20T05:42:12;93982.97;;;-1.59;100.00
23166;BME280;11751;42.700;24.170;2023-12-20T05:44:38;93970.91;;;-1.67;100.00
23166;BME280;11751;42.700;24.170;2023-12-20T05:47:03;93980.91;;;-1.64;100.00
23166;BME280;11751;42.700;24.170;2023-12-20T05:49:29;93975.28;;;-1.75;100.00
23166;BME280;11751;42.700;24.170;2023-12-20T05:51:54;93978.53;;;-1.76;100.00
23166;BME280;11751;42.700;24.170;2023-12-20T05:54:20;93971.31;;;-2.14;100.00
23166;BME280;11751;42.700;24.170;2023-12-20T05:56:45;93975.84;;;-2.11;100.00
23166;BME280;11751;42.700;24.170;2023-12-20T05:59:11;93967.63;;;-1.91;100.00
23166;BME280;11751;42.700;24.170;2023-12-20T06:01:36;93974.97;;;-1.82;100.00
23166;BME280;11751;42.700;24.170;2023-12-20T06:04:02;93966.31;;;-1.75;100.00
23166;BME280;11751;42.700;24.170;2023-12-20T06:06:28;93958.38;;;-1.93;100.00
23166;BME280;11751;42.700;24.170;2023-12-20T06:08:53;93957.00;;;-1.83;100.00
23166;BME280;11751;42.700;24.170;2023-12-20T06:11:19;93960.47;;;-1.63;100.00
23166;BME280;11751;42.700;24.170;2023-12-20T06:13:44;93961.75;;;-1.59;100.00
23166;BME280;11751;42.700;24.170;2023-12-20T06:16:10;93960.25;;;-1.60;100.00
23166;BME280;11751;42.700;24.170;2023-12-20T06:18:35;93945.84;;;-1.55;100.00
23166;BME280;11751;42.700;24.170;2023-12-20T06:21:02;93948.84;;;-1.53;100.00
23166;BME280;11751;42.700;24.170;2023-12-20T06:23:27;93952.13;;;-1.49;100.00
23166;BME280;11751;42.700;24.170;2023-12-20T06:25:53;93953.16;;;-1.46;100.00
23166;BME280;11751;42.700;24.170;2023-12-20T06:28:18;93952.19;;;-1.43;100.00
23166;BME280;11751;42.700;24.170;2023-12-20T06:30:44;93948.53;;;-1.35;100.00
23166;BME280;11751;42.700;24.170;2023-12-20T06:33:09;93950.84;;;-1.28;100.00
23166;BME280;11751;42.700;24.170;2023-12-20T06:35:36;93952.63;;;-1.25;100.00
23166;BME280;11751;42.700;24.170;2023-12-20T06:38:02;93945.34;;;-1.28;100.00
23166;BME280;11751;42.700;24.170;2023-12-20T06:40:27;93943.16;;;-1.24;100.00
23166;BME280;11751;42.700;24.170;2023-12-20T06:42:53;93947.66;;;-1.21;100.00
23166;BME280;11751;42.700;24.170;2023-12-20T06:45:18;93941.22;;;-1.18;100.00
23166;BME280;11751;42.700;24.170;2023-12-20T06:47:43;93941.94;;;-1.17;100.00
23166;BME280;11751;42.700;24.170;2023-12-20T06:50:09;93937.78;;;-1.13;100.00
23166;BME280;11751;42.700;24.170;2023-12-20T06:52:34;93929.53;;;-1.13;100.00
23166;BME280;11751;42.700;24.170;2023-12-20T06:55:00;93923.16;;;-0.99;100.00
23166;BME280;11751;42.700;24.170;2023-12-20T06:57:26;93924.94;;;-0.96;100.00
23166;BME280;11751;42.700;24.170;2023-12-20T06:59:53;93931.25;;;-0.85;100.00
23166;BME280;11751;42.700;24.170;2023-12-20T07:02:18;93922.59;;;-0.72;100.00
23166;BME280;11751;42.700;24.170;2023-12-20T07:04:44;93924.66;;;-0.67;100.00
23166;BME280;11751;42.700;24.170;2023-12-20T07:07:09;93919.50;;;-0.49;100.00
23166;BME280;11751;42.700;24.170;2023-12-20T07:09:35;93896.06;;;-0.44;100.00
23166;BME280;11751;42.700;24.170;2023-12-20T07:12:00;93908.81;;;-0.41;100.00
23166;BME280;11751;42.700;24.170;2023-12-20T07:14:25;93900.34;;;-0.32;100.00
23166;BME280;11751;42.700;24.170;2023-12-20T07:16:51;93893.41;;;-0.22;100.00
23166;BME280;11751;42.700;24.170;2023-12-20T07:19:16;93892.69;;;-0.17;100.00
23166;BME280;11751;42.700;24.170;2023-12-20T07:21:42;93904.00;;;-0.04;100.00
23166;BME280;11751;42.700;24.170;2023-12-20T07:24:07;93901.06;;;0.04;100.00
23166;BME280;11751;42.700;24.170;2023-12-20T07:26:33;93897.09;;;0.16;100.00
23166;BME280;11751;42.700;24.170;2023-12-20T07:28:59;93891.13;;;0.23;100.00
23166;BME280;11751;42.700;24.170;2023-12-20T07:31:24;93886.13;;;0.33;100.00
23166;BME280;11751;42.700;24.170;2023-12-20T07:33:50;93886.16;;;0.38;100.00
23166;BME280;11751;42.700;24.170;2023-12-20T07:36:15;93890.94;;;0.43;100.00
23166;BME280;11751;42.700;24.170;2023-12-20T07:38:40;93898.44;;;0.48;100.00
23166;BME280;11751;42.700;24.170;2023-12-20T07:41:09;93895.91;;;0.39;100.00
23166;BME280;11751;42.700;24.170;2023-12-20T07:43:35;93880.66;;;0.49;100.00
23166;BME280;11751;42.700;24.170;2023-12-20T07:46:07;93892.97;;;0.70;100.00
23166;BME280;11751;42.700;24.170;2023-12-20T07:48:36;93882.97;;;0.89;100.00
23166;BME280;11751;42.700;24.170;2023-12-20T07:51:03;93883.25;;;1.02;100.00
23166;BME280;11751;42.700;24.170;2023-12-20T07:53:28;93875.72;;;1.19;100.00
23166;BME280;11751;42.700;24.170;2023-12-20T07:55:54;93882.75;;;1.31;100.00
23166;BME280;11751;42.700;24.170;2023-12-20T07:58:19;93878.22;;;1.22;100.00
23166;BME280;11751;42.700;24.170;2023-12-20T08:00:45;93872.19;;;1.46;100.00
23166;BME280;11751;42.700;24.170;2023-12-20T08:03:10;93871.91;;;1.49;100.00
23166;BME280;11751;42.700;24.170;2023-12-20T08:05:37;93871.66;;;1.53;100.00
23166;BME280;11751;42.700;24.170;2023-12-20T08:08:06;93873.69;;;1.47;100.00
23166;BME280;11751;42.700;24.170;2023-12-20T08:10:31;93883.47;;;1.53;100.00
23166;BME280;11751;42.700;24.170;2023-12-20T08:12:56;93877.22;;;1.42;100.00
23166;BME280;11751;42.700;24.170;2023-12-20T08:15:22;93891.97;;;1.61;100.00
23166;BME280;11751;42.700;24.170;2023-12-20T08:17:47;93884.66;;;1.79;100.00
23166;BME280;11751;42.700;24.170;2023-12-20T08:20:13;93879.63;;;1.83;100.00
23166;BME280;11751;42.700;24.170;2023-12-20T08:22:38;93882.13;;;1.81;100.00
23166;BME280;11751;42.700;24.170;2023-12-20T08:25:04;93874.03;;;2.05;100.00
23166;BME280;11751;42.700;24.170;2023-12-20T08:27:31;93871.91;;;2.33;100.00
23166;BME280;11751;42.700;24.170;2023-12-20T08:29:57;93880.09;;;2.55;100.00
23166;BME280;11751;42.700;24.170;2023-12-20T08:32:25;93867.13;;;2.79;100.00
23166;BME280;11751;42.700;24.170;2023-12-20T08:34:52;93869.50;;;2.99;100.00
23166;BME280;11751;42.700;24.170;2023-12-20T08:37:17;93859.50;;;3.26;100.00
23166;BME280;11751;42.700;24.170;2023-12-20T08:39:43;93852.47;;;3.48;100.00
23166;BME280;11751;42.700;24.170;2023-12-20T08:42:09;93851.53;;;3.70;100.00
23166;BME280;11751;42.700;24.170;2023-12-20T08:44:34;93849.34;;;3.87;100.00
23166;BME280;11751;42.700;24.170;2023-12-20T08:47:00;93845.56;;;4.08;99.59
23166;BME280;11751;42.700;24.170;2023-12-20T08:49:25;93839.84;;;4.43;100.00
23166;BME280;11751;42.700;24.170;2023-12-20T08:51:50;93837.00;;;4.67;98.84
23166;BME280;11751;42.700;24.170;2023-12-20T08:54:16;93829.63;;;4.88;96.47
23166;BME280;11751;42.700;24.170;2023-12-20T08:56:42;93827.91;;;5.03;93.62
23166;BME280;11751;42.700;24.170;2023-12-20T08:59:08;93813.13;;;5.13;94.06
23166;BME280;11751;42.700;24.170;2023-12-20T09:01:34;93815.50;;;5.22;91.16
23166;BME280;11751;42.700;24.170;2023-12-20T09:04:00;93812.81;;;5.17;89.16
23166;BME280;11751;42.700;24.170;2023-12-20T09:06:25;93799.84;;;5.38;88.44
23166;BME280;11751;42.700;24.170;2023-12-20T09:08:51;93804.25;;;5.59;86.63
23166;BME280;11751;42.700;24.170;2023-12-20T09:11:17;93802.44;;;5.75;86.69
23166;BME280;11751;42.700;24.170;2023-12-20T09:13:43;93788.06;;;5.89;86.14
23166;BME280;11751;42.700;24.170;2023-12-20T09:16:09;93792.03;;;6.06;85.49
23166;BME280;11751;42.700;24.170;2023-12-20T09:18:35;93777.97;;;6.12;87.05
23166;BME280;11751;42.700;24.170;2023-12-20T09:21:00;93773.69;;;6.24;88.29
23166;BME280;11751;42.700;24.170;2023-12-20T09:23:27;93771.97;;;6.34;89.07
23166;BME280;11751;42.700;24.170;2023-12-20T09:25:52;93772.06;;;6.41;87.01
23166;BME280;11751;42.700;24.170;2023-12-20T09:28:18;93763.84;;;6.36;85.95
23166;BME280;11751;42.700;24.170;2023-12-20T09:30:43;93749.94;;;6.49;84.99
23166;BME280;11751;42.700;24.170;2023-12-20T09:33:10;93751.44;;;6.50;84.13
23166;BME280;11751;42.700;24.170;2023-12-20T09:35:36;93744.59;;;6.71;83.67
23166;BME280;11751;42.700;24.170;2023-12-20T09:38:01;93733.47;;;6.71;81.62
23166;BME280;11751;42.700;24.170;2023-12-20T09:40:27;93728.78;;;6.66;82.48
23166;BME280;11751;42.700;24.170;2023-12-20T09:43:00;93724.19;;;6.69;80.81
23166;BME280;11751;42.700;24.170;2023-12-20T09:45:30;93714.59;;;6.77;81.05
23166;BME280;11751;42.700;24.170;2023-12-20T09:47:57;93703.13;;;6.80;81.57
23166;BME280;11751;42.700;24.170;2023-12-20T09:50:23;93702.81;;;6.84;81.13
23166;BME280;11751;42.700;24.170;2023-12-20T09:52:51;93702.88;;;6.91;79.87
23166;BME280;11751;42.700;24.170;2023-12-20T09:55:19;93693.25;;;6.92;80.37
23166;BME280;11751;42.700;24.170;2023-12-20T09:57:46;93683.13;;;7.02;82.39
23166;BME280;11751;42.700;24.170;2023-12-20T10:00:12;93682.00;;;7.26;81.32
23166;BME280;11751;42.700;24.170;2023-12-20T10:02:59;93689.41;;;7.44;80.96
23166;BME280;11751;42.700;24.170;2023-12-20T10:05:31;93675.16;;;7.55;81.81
23166;BME280;11751;42.700;24.170;2023-12-20T10:07:57;93676.34;;;7.66;82.39
23166;BME280;11751;42.700;24.170;2023-12-20T10:10:23;93673.50;;;7.87;80.64
23166;BME280;11751;42.700;24.170;2023-12-20T10:13:06;93664.88;;;8.13;79.85
23166;BME280;11751;42.700;24.170;2023-12-20T10:15:35;93669.63;;;8.33;79.47
23166;BME280;11751;42.700;24.170;2023-12-20T10:18:02;93670.06;;;8.51;82.05
23166;BME280;11751;42.700;24.170;2023-12-20T10:20:28;93657.81;;;8.69;81.88
23166;BME280;11751;42.700;24.170;2023-12-20T10:22:55;93659.75;;;8.97;78.82
23166;BME280;11751;42.700;24.170;2023-12-20T10:25:21;93657.13;;;9.21;78.08
23166;BME280;11751;42.700;24.170;2023-12-20T10:27:46;93657.69;;;9.27;77.64
23166;BME280;11751;42.700;24.170;2023-12-20T10:30:13;93643.34;;;9.53;76.07
23166;BME280;11751;42.700;24.170;2023-12-20T10:32:39;93638.44;;;9.76;73.69
23166;BME280;11751;42.700;24.170;2023-12-20T10:35:06;93641.00;;;9.96;74.49
23166;BME280;11751;42.700;24.170;2023-12-20T10:37:35;93625.53;;;10.03;73.91
23166;BME280;11751;42.700;24.170;2023-12-20T10:40:03;93615.41;;;10.15;70.83
23166;BME280;11751;42.700;24.170;2023-12-20T10:42:29;93607.34;;;10.26;70.62
23166;BME280;11751;42.700;24.170;2023-12-20T10:44:59;93612.94;;;10.26;71.49
23166;BME280;11751;42.700;24.170;2023-12-20T10:47:26;93600.56;;;10.36;72.65
23166;BME280;11751;42.700;24.170;2023-12-20T10:49:53;93598.66;;;10.46;73.81
23166;BME280;11751;42.700;24.170;2023-12-20T10:52:23;93593.63;;;10.45;70.78
23166;BME280;11751;42.700;24.170;2023-12-20T10:54:49;93567.75;;;10.37;71.48
23166;BME280;11751;42.700;24.170;2023-12-20T10:57:18;93594.09;;;10.58;71.43
23166;BME280;11751;42.700;24.170;2023-12-20T10:59:45;93590.25;;;10.78;69.50
23166;BME280;11751;42.700;24.170;2023-12-20T11:02:12;93585.31;;;10.86;65.33
23166;BME280;11751;42.700;24.170;2023-12-20T11:07:23;93585.22;;;11.01;63.62
23166;BME280;11751;42.700;24.170;2023-12-20T11:09:58;93568.41;;;11.01;61.80
23166;BME280;11751;42.700;24.170;2023-12-20T11:12:32;93578.81;;;11.08;60.28
23166;BME280;11751;42.700;24.170;2023-12-20T11:14:58;93560.31;;;10.88;64.25
23166;BME280;11751;42.700;24.170;2023-12-20T11:17:28;93560.31;;;10.88;63.63
23166;BME280;11751;42.700;24.170;2023-12-20T11:22:25;93547.97;;;10.91;60.42
23166;BME280;11751;42.700;24.170;2023-12-20T11:24:52;93544.44;;;10.83;58.13
23166;BME280;11751;42.700;24.170;2023-12-20T11:27:19;93540.09;;;10.90;59.65
23166;BME280;11751;42.700;24.170;2023-12-20T11:29:52;93541.53;;;10.98;62.18
23166;BME280;11751;42.700;24.170;2023-12-20T11:34:51;93536.06;;;10.83;63.75
23166;BME280;11751;42.700;24.170;2023-12-20T11:37:16;93522.97;;;10.86;63.99
23166;BME280;11751;42.700;24.170;2023-12-20T11:39:44;93508.34;;;10.95;63.44
23166;BME280;11751;42.700;24.170;2023-12-20T11:42:10;93497.88;;;10.95;63.57
23166;BME280;11751;42.700;24.170;2023-12-20T11:44:36;93496.91;;;11.00;58.23
23166;BME280;11751;42.700;24.170;2023-12-20T11:47:02;93495.91;;;11.05;59.37
23166;BME280;11751;42.700;24.170;2023-12-20T11:49:27;93483.88;;;11.12;61.07
23166;BME280;11751;42.700;24.170;2023-12-20T11:51:56;93485.22;;;11.28;61.53
23166;BME280;11751;42.700;24.170;2023-12-20T11:54:21;93475.50;;;11.29;59.79
23166;BME280;11751;42.700;24.170;2023-12-20T11:56:47;93471.69;;;11.34;60.55
23166;BME280;11751;42.700;24.170;2023-12-20T11:59:13;93455.22;;;11.38;60.96
23166;BME280;11751;42.700;24.170;2023-12-20T12:01:38;93460.16;;;11.47;60.74
23166;BME280;11751;42.700;24.170;2023-12-20T12:04:06;93452.00;;;11.41;61.69
23166;BME280;11751;42.700;24.170;2023-12-20T12:06:32;93452.59;;;11.40;59.03
23166;BME280;11751;42.700;24.170;2023-12-20T12:08:59;93452.91;;;11.44;58.85
23166;BME280;11751;42.700;24.170;2023-12-20T12:11:24;93445.31;;;11.37;58.87
23166;BME280;11751;42.700;24.170;2023-12-20T12:13:50;93446.13;;;11.47;59.17
23166;BME280;11751;42.700;24.170;2023-12-20T12:16:20;93446.31;;;11.49;61.19
23166;BME280;11751;42.700;24.170;2023-12-20T12:18:46;93432.63;;;11.53;59.61
23166;BME280;11751;42.700;24.170;2023-12-20T12:21:19;93428.50;;;11.54;57.96
23166;BME280;11751;42.700;24.170;2023-12-20T12:23:45;93432.53;;;11.60;59.26
23166;BME280;11751;42.700;24.170;2023-12-20T12:26:11;93439.88;;;11.56;60.35
23166;BME280;11751;42.700;24.170;2023-12-20T12:28:39;93430.81;;;11.48;60.57
23166;BME280;11751;42.700;24.170;2023-12-20T12:31:04;93428.97;;;11.43;58.68
23166;BME280;11751;42.700;24.170;2023-12-20T12:33:30;93435.09;;;11.32;59.55
23166;BME280;11751;42.700;24.170;2023-12-20T12:35:55;93432.28;;;11.32;60.38
23166;BME280;11751;42.700;24.170;2023-12-20T12:38:21;93421.50;;;11.28;60.25
23166;BME280;11751;42.700;24.170;2023-12-20T12:40:47;93420.75;;;11.45;60.48
23166;BME280;11751;42.700;24.170;2023-12-20T12:43:12;93431.13;;;11.52;61.62
23166;BME280;11751;42.700;24.170;2023-12-20T12:45:38;93431.47;;;11.39;59.23
23166;BME280;11751;42.700;24.170;2023-12-20T12:48:04;93428.94;;;11.33;59.91